Main page
METAR-TAF:

METAR-TAF

Airports :

Canoas Air Force Base

Porto Alegre, Rio Grande do Sul, Brazil

latitude: 30-01S, longitude: 051-13W, elevation: 47 m

Current weather observation

The report was made 2 hours and 16 minutes ago, at 19:00 UTC
Wind 9 kt from the East/Southeast, varying between East and South/Southeast
Temperature 31°C
Humidity 40%
Pressure 1012 hPa
Visibility 10 km or more
no clouds below 1500 m and no cumulonimbus

METAR: SBCO 281900Z 11009KT 080V160 CAVOK 31/16 Q1012

Time: 18:16 (21:16 UTC)

Forecast

The report was made 6 hours and 16 minutes ago, at 15:00 UTC
Forecast valid from 28 at 18 UTC to 29 at 06 UTC
Wind 10 kt from the East/Southeast
Visibility 10 km or more
Few clouds at a height of 3500 ft
Becoming
from 28 at 20 UTC to 28 at 22 UTC
Wind 6 kt from the East
Visibility 10 km or more
no clouds below 1500 m and no cumulonimbus

TAF: SBCO 281500Z 2818/2906 11010KT 9999 FEW035 TX33/2818Z TN22/2905Z BECMG 2820/2822 10006KT CAVOK RMK PEB

Weather observations and forecasts of more than 4000 airports (METAR and TAF reports).

The available stations are represented by yellow and red dots on the map.

Hover mouse over dot to see the name of the station.

Then click to see weather observations and forecasts.

To change the map : click on the green buttons with a black cross to zoom in, on the green button with a dash to zoom out, or on the green arrows for adjacent maps.


METAR-TAF: